createdAt,value
2022-11-29T00:01:41.910Z,100994.02
2022-11-29T00:04:10.863Z,100996.15
2022-11-29T00:06:39.190Z,100994.38
2022-11-29T00:09:11.541Z,100994.01
2022-11-29T00:11:59.339Z,100992.38
2022-11-29T00:14:28.646Z,100992.15
2022-11-29T00:17:01.285Z,100991.77
2022-11-29T00:19:31.383Z,100990.02
2022-11-29T00:22:00.486Z,100986.77
2022-11-29T00:24:31.876Z,100984.98
2022-11-29T00:27:01.357Z,100990.80
2022-11-29T00:29:30.665Z,100989.64
2022-11-29T00:31:59.204Z,100987.73
2022-11-29T00:34:27.782Z,100987.42
2022-11-29T00:36:56.105Z,100987.00
2022-11-29T00:39:25.188Z,100991.35
2022-11-29T00:41:53.644Z,100986.67
2022-11-29T00:44:21.891Z,100992.50
2022-11-29T00:46:50.358Z,100989.12
2022-11-29T00:49:18.946Z,100987.34
2022-11-29T00:51:47.962Z,100989.06
2022-11-29T00:54:18.820Z,100988.99
2022-11-29T00:56:47.884Z,100986.39
2022-11-29T00:59:16.150Z,100982.00
2022-11-29T01:01:44.915Z,100968.48
2022-11-29T01:04:13.326Z,100984.20
2022-11-29T01:06:42.548Z,100982.46
2022-11-29T01:09:10.790Z,100982.51
2022-11-29T01:11:39.016Z,100980.75
2022-11-29T01:14:07.341Z,100974.39
2022-11-29T01:16:35.904Z,100989.19
2022-11-29T01:19:06.699Z,100983.14
2022-11-29T01:21:35.141Z,100983.38
2022-11-29T01:24:04.053Z,100981.72
2022-11-29T01:26:32.648Z,100981.35
2022-11-29T01:29:01.155Z,100982.69
2022-11-29T01:31:31.361Z,100986.20
2022-11-29T01:34:01.849Z,100981.00
2022-11-29T01:36:30.738Z,100984.77
2022-11-29T01:39:01.302Z,100983.45
2022-11-29T01:41:32.584Z,100983.14
2022-11-29T01:44:04.469Z,100983.30
2022-11-29T01:46:35.068Z,100969.89
2022-11-29T01:49:09.216Z,100977.70
2022-11-29T01:51:41.551Z,100979.25
2022-11-29T01:54:12.174Z,100979.39
2022-11-29T01:56:41.421Z,100979.19
2022-11-29T01:59:13.937Z,100983.86
2022-11-29T02:01:42.339Z,100980.35
2022-11-29T02:04:11.266Z,100978.59
2022-11-29T02:06:41.041Z,100976.02
2022-11-29T02:09:19.277Z,100971.81
2022-11-29T02:12:03.321Z,100970.77
2022-11-29T02:14:52.260Z,100974.80
2022-11-29T02:17:32.767Z,100973.11
2022-11-29T02:20:31.671Z,100948.41
2022-11-29T02:23:14.269Z,100974.55
2022-11-29T02:26:03.389Z,100968.95
2022-11-29T02:29:00.147Z,100972.76
2022-11-29T02:31:58.750Z,100973.02
2022-11-29T02:34:39.979Z,100976.05
2022-11-29T02:37:24.684Z,100981.10
2022-11-29T02:40:10.592Z,100979.48
2022-11-29T02:43:06.969Z,100980.22
2022-11-29T02:45:48.290Z,100981.02
2022-11-29T02:48:33.930Z,100985.73
2022-11-29T02:51:09.559Z,100987.39
2022-11-29T02:53:43.838Z,100989.11
2022-11-29T02:56:21.720Z,100992.48
2022-11-29T02:58:55.590Z,100989.72
2022-11-29T03:01:29.416Z,100986.71
2022-11-29T03:04:20.159Z,100992.91
2022-11-29T03:06:56.526Z,100982.55
2022-11-29T03:09:35.054Z,100992.45
2022-11-29T03:12:16.016Z,100992.56
2022-11-29T03:14:55.302Z,100997.14
2022-11-29T03:17:32.420Z,100985.05
2022-11-29T03:20:11.138Z,100995.98
2022-11-29T03:22:47.842Z,100995.81
2022-11-29T03:25:22.405Z,100999.61
2022-11-29T03:27:54.668Z,101000.60
2022-11-29T03:30:23.411Z,101002.34
2022-11-29T03:33:02.797Z,101001.17
2022-11-29T03:35:37.250Z,101007.36
2022-11-29T03:38:19.806Z,101006.65
2022-11-29T03:40:54.860Z,101006.91
2022-11-29T03:43:30.260Z,100983.61
2022-11-29T03:46:04.167Z,101009.38
2022-11-29T03:48:37.329Z,101007.39
2022-11-29T03:51:12.878Z,101009.50
2022-11-29T03:53:47.786Z,101008.40
2022-11-29T03:56:32.639Z,101009.08
2022-11-29T03:59:09.537Z,101010.42
2022-11-29T04:02:17.826Z,101008.39
2022-11-29T04:05:11.238Z,101010.86
2022-11-29T04:07:52.585Z,101012.92
2022-11-29T04:10:33.515Z,101011.81
2022-11-29T04:13:20.622Z,101016.23
2022-11-29T04:16:17.817Z,101021.23
2022-11-29T04:19:11.458Z,101023.02
2022-11-29T04:22:06.850Z,101018.66
2022-11-29T04:24:52.569Z,101023.90
2022-11-29T04:27:34.075Z,101024.91
2022-11-29T04:30:09.484Z,101026.20
2022-11-29T04:33:25.344Z,101030.36
2022-11-29T04:36:11.073Z,101034.27
2022-11-29T04:38:55.264Z,101032.90
2022-11-29T04:41:52.018Z,101021.63
2022-11-29T04:44:40.948Z,101033.99
2022-11-29T04:47:40.001Z,101028.73
2022-11-29T04:50:25.847Z,101038.00
2022-11-29T04:53:23.925Z,101039.36
2022-11-29T04:55:58.863Z,101045.09
2022-11-29T04:58:36.315Z,101046.84
2022-11-29T05:01:13.326Z,101048.50
2022-11-29T05:03:53.838Z,101052.02
2022-11-29T05:06:32.419Z,101055.13
2022-11-29T05:09:10.686Z,101053.57
2022-11-29T05:11:58.336Z,101055.98
2022-11-29T05:14:35.698Z,101053.27
2022-11-29T05:17:23.363Z,101056.81
2022-11-29T05:20:02.885Z,101056.36
2022-11-29T05:22:39.169Z,101059.42
2022-11-29T05:25:31.682Z,101061.17
2022-11-29T05:28:10.343Z,101039.79
2022-11-29T05:31:06.832Z,101065.98
2022-11-29T05:33:53.575Z,101068.58
2022-11-29T05:36:29.012Z,101069.52
2022-11-29T05:39:11.570Z,101075.33
2022-11-29T05:42:06.132Z,101075.20
2022-11-29T05:44:43.906Z,101074.33
2022-11-29T05:47:21.306Z,101076.71
2022-11-29T05:50:03.077Z,101079.40
2022-11-29T05:52:43.492Z,101083.08
2022-11-29T05:55:24.669Z,101084.89
2022-11-29T05:57:58.596Z,101085.21
2022-11-29T06:00:32.271Z,101090.53
2022-11-29T06:03:08.977Z,101092.13
2022-11-29T06:05:46.185Z,101095.03
2022-11-29T06:08:24.194Z,101083.02
2022-11-29T06:11:01.205Z,101094.13
2022-11-29T06:13:45.222Z,101099.21
2022-11-29T06:16:39.835Z,101097.63
2022-11-29T06:19:36.814Z,101102.92
2022-11-29T06:22:21.277Z,101104.35
2022-11-29T06:25:07.469Z,101110.59
2022-11-29T06:28:01.604Z,101100.25
2022-11-29T06:30:40.800Z,101121.45
2022-11-29T06:33:18.808Z,101124.98
2022-11-29T06:35:59.690Z,101122.79
2022-11-29T06:38:32.896Z,101125.95
2022-11-29T06:41:06.056Z,101127.11
2022-11-29T06:43:36.399Z,101129.98
2022-11-29T06:46:13.727Z,101133.59
2022-11-29T06:48:50.681Z,101131.30
2022-11-29T06:51:28.530Z,101132.25
2022-11-29T06:54:05.016Z,101133.16
2022-11-29T06:56:41.537Z,101135.27
2022-11-29T06:59:34.912Z,101132.75
2022-11-29T07:02:14.339Z,101131.98
2022-11-29T07:04:58.368Z,101137.45
2022-11-29T07:07:28.012Z,101133.48
2022-11-29T07:09:59.037Z,101137.17
2022-11-29T07:12:28.569Z,101135.63
2022-11-29T07:14:58.159Z,101139.98
2022-11-29T07:17:34.804Z,101142.52
2022-11-29T07:20:10.066Z,101141.04
2022-11-29T07:22:58.835Z,101147.96
2022-11-29T07:25:38.004Z,101151.66
2022-11-29T07:28:19.521Z,101155.28
2022-11-29T07:30:54.001Z,101147.79
2022-11-29T07:33:31.800Z,101151.98
2022-11-29T07:36:10.787Z,101154.45
2022-11-29T07:38:54.783Z,101157.63
2022-11-29T07:41:31.779Z,101160.07
2022-11-29T07:44:09.541Z,101164.27
2022-11-29T07:46:37.863Z,101171.41
2022-11-29T07:49:09.285Z,101174.98
2022-11-29T07:51:37.673Z,101178.55
2022-11-29T07:54:06.022Z,101175.35
2022-11-29T07:56:34.592Z,101174.84
2022-11-29T07:59:02.991Z,101172.81
2022-11-29T08:01:32.015Z,101175.26
2022-11-29T08:04:00.293Z,101171.59
2022-11-29T08:06:28.680Z,101180.27
2022-11-29T08:08:58.537Z,101179.52
2022-11-29T08:11:27.284Z,101177.88
2022-11-29T08:13:57.251Z,101168.40
2022-11-29T08:16:25.780Z,101183.52
2022-11-29T08:18:54.315Z,101178.28
2022-11-29T08:21:22.692Z,101177.35
2022-11-29T08:23:51.357Z,101186.91
2022-11-29T08:26:20.997Z,101175.30
2022-11-29T08:28:51.724Z,101188.70
2022-11-29T08:31:20.842Z,101188.26
2022-11-29T08:33:49.206Z,101188.95
2022-11-29T08:36:19.435Z,101185.13
2022-11-29T08:38:47.925Z,101183.59
2022-11-29T08:41:17.716Z,101190.73
2022-11-29T08:43:46.164Z,101189.25
2022-11-29T08:46:18.452Z,101185.10
2022-11-29T08:48:47.355Z,101189.29
2022-11-29T08:51:15.704Z,101175.30
2022-11-29T08:53:45.743Z,101188.61
2022-11-29T08:59:04.741Z,101192.55
2022-11-29T09:01:33.205Z,101193.02
2022-11-29T09:04:07.005Z,101193.77
2022-11-29T09:06:39.032Z,101198.86
2022-11-29T09:09:07.402Z,101205.23
2022-11-29T09:11:36.500Z,101205.20
2022-11-29T09:14:07.381Z,101205.66
2022-11-29T09:16:37.658Z,101206.59
2022-11-29T09:19:06.422Z,101209.64
2022-11-29T09:21:36.093Z,101206.66
2022-11-29T09:24:06.153Z,101206.45
2022-11-29T09:26:37.408Z,101210.21
2022-11-29T09:29:06.883Z,101211.88
2022-11-29T09:31:35.508Z,101200.05
2022-11-29T09:34:04.475Z,101214.98
2022-11-29T09:36:33.430Z,101214.27
2022-11-29T09:39:02.592Z,101211.54
2022-11-29T09:41:48.598Z,101212.02
2022-11-29T09:44:25.239Z,101218.70
2022-11-29T09:47:04.154Z,101219.09
2022-11-29T09:49:55.063Z,101219.54
2022-11-29T09:52:33.924Z,101211.77
2022-11-29T09:55:12.828Z,101213.06
2022-11-29T09:57:43.535Z,101205.30
2022-11-29T10:00:17.542Z,101206.95
2022-11-29T10:02:50.335Z,101210.19
2022-11-29T10:05:24.155Z,101208.05
2022-11-29T10:08:00.493Z,101204.69
2022-11-29T10:10:37.129Z,101207.09
2022-11-29T10:13:18.650Z,101205.98
2022-11-29T10:15:52.676Z,101209.34
2022-11-29T10:18:26.442Z,101208.66
2022-11-29T10:20:59.722Z,101210.77
2022-11-29T10:23:33.928Z,101211.83
2022-11-29T10:26:07.256Z,101204.80
2022-11-29T10:28:37.124Z,101214.17
2022-11-29T10:31:18.861Z,101215.67
2022-11-29T10:33:47.721Z,101216.10
2022-11-29T10:36:21.755Z,101204.75
2022-11-29T10:38:52.893Z,101215.66
2022-11-29T10:41:25.716Z,101217.78
2022-11-29T10:43:57.235Z,101225.63
2022-11-29T10:46:30.062Z,101224.23
2022-11-29T10:49:03.119Z,101224.34
2022-11-29T10:51:33.017Z,101214.27
2022-11-29T10:54:20.708Z,101227.09
2022-11-29T10:56:49.359Z,101228.84
2022-11-29T10:59:22.925Z,101236.42
2022-11-29T11:01:52.001Z,101238.61
2022-11-29T11:04:28.079Z,101225.77
2022-11-29T11:07:00.756Z,101236.89
2022-11-29T11:09:33.942Z,101239.82
2022-11-29T11:12:05.803Z,101241.45
2022-11-29T11:14:37.283Z,101235.90
2022-11-29T11:17:20.742Z,101237.39
2022-11-29T11:19:57.064Z,101225.85
2022-11-29T11:22:26.986Z,101234.46
2022-11-29T11:25:00.859Z,101233.02
2022-11-29T11:27:31.788Z,101230.98
2022-11-29T11:30:01.527Z,101232.34
2022-11-29T11:32:30.238Z,101232.36
2022-11-29T11:35:00.573Z,101236.25
2022-11-29T11:37:30.309Z,101240.02
2022-11-29T11:40:00.600Z,101236.32
2022-11-29T11:42:39.742Z,101236.48
2022-11-29T11:45:25.955Z,101237.77
2022-11-29T11:47:57.557Z,101237.20
2022-11-29T11:50:31.932Z,101238.49
2022-11-29T11:53:04.435Z,101234.81
2022-11-29T11:55:36.711Z,101238.39
2022-11-29T11:58:17.118Z,101241.27
2022-11-29T12:01:04.022Z,101243.61
2022-11-29T12:03:47.830Z,101252.99
2022-11-29T12:06:31.774Z,101256.01
2022-11-29T12:09:04.888Z,101253.27
2022-11-29T12:11:41.281Z,101257.80
2022-11-29T12:14:18.078Z,101242.98
2022-11-29T12:16:50.228Z,101256.25
2022-11-29T12:19:26.289Z,101254.48
2022-11-29T12:22:02.940Z,101253.64
2022-11-29T12:24:37.799Z,101255.58
2022-11-29T12:27:09.439Z,101254.25
2022-11-29T12:29:37.972Z,101255.57
2022-11-29T12:32:21.117Z,101254.88
2022-11-29T12:35:07.958Z,101242.31
2022-11-29T12:37:43.091Z,101257.39
2022-11-29T12:40:20.651Z,101257.24
2022-11-29T12:42:56.905Z,101261.77
2022-11-29T12:45:36.173Z,101266.28
2022-11-29T12:48:15.761Z,101272.42
2022-11-29T12:50:58.885Z,101268.48
2022-11-29T12:53:44.998Z,101273.44
2022-11-29T12:56:18.527Z,101283.73
2022-11-29T12:59:00.927Z,101274.02
2022-11-29T13:01:41.097Z,101286.09
2022-11-29T13:04:21.887Z,101285.46
2022-11-29T13:07:01.955Z,101286.95
2022-11-29T13:09:54.156Z,101287.13
2022-11-29T13:12:27.896Z,101286.41
2022-11-29T13:15:01.527Z,101288.70
2022-11-29T13:17:39.027Z,101287.89
2022-11-29T13:20:23.906Z,101278.85
2022-11-29T13:22:55.063Z,101289.98
2022-11-29T13:25:28.453Z,101293.64
2022-11-29T13:28:01.505Z,101298.66
2022-11-29T13:30:30.059Z,101297.27
2022-11-29T13:33:07.043Z,101302.39
2022-11-29T13:35:42.439Z,101301.80
2022-11-29T13:38:22.958Z,101302.06
2022-11-29T13:41:00.777Z,101304.77
2022-11-29T13:43:37.644Z,101307.88
2022-11-29T13:46:17.226Z,101307.80
2022-11-29T13:48:50.686Z,101313.42
2022-11-29T13:51:25.467Z,101318.56
2022-11-29T13:53:53.933Z,101325.29
2022-11-29T13:56:29.227Z,101322.75
2022-11-29T13:59:00.653Z,101325.83
2022-11-29T14:01:29.128Z,101322.66
2022-11-29T14:04:04.297Z,101322.64
2022-11-29T14:06:35.004Z,101321.77
2022-11-29T14:09:26.059Z,101325.02
2022-11-29T14:12:02.759Z,101326.77
2022-11-29T14:14:37.181Z,101326.92
2022-11-29T14:17:26.215Z,101333.52
2022-11-29T14:20:32.742Z,101335.20
2022-11-29T14:23:16.472Z,101332.84
2022-11-29T14:26:29.191Z,101337.77
2022-11-29T14:28:58.981Z,101328.71
2022-11-29T14:31:55.182Z,101336.06
2022-11-29T14:34:46.475Z,101341.52
2022-11-29T14:37:50.826Z,101342.63
2022-11-29T14:40:27.171Z,101340.30
2022-11-29T14:42:55.771Z,101342.34
2022-11-29T14:45:30.493Z,101342.44
2022-11-29T14:48:01.148Z,101342.82
2022-11-29T14:50:32.602Z,101346.89
2022-11-29T14:53:02.382Z,101346.76
2022-11-29T14:55:34.666Z,101348.38
2022-11-29T14:58:20.504Z,101349.36
2022-11-29T15:01:10.972Z,101347.82
2022-11-29T15:03:50.551Z,101348.56
2022-11-29T15:06:25.176Z,101355.02
2022-11-29T15:09:04.233Z,101358.53
2022-11-29T15:11:48.878Z,101355.15
2022-11-29T15:14:26.437Z,101358.51
2022-11-29T15:17:22.525Z,101356.21
2022-11-29T15:20:07.302Z,101350.70
2022-11-29T15:22:45.917Z,101364.00
2022-11-29T15:25:16.442Z,101368.94
2022-11-29T15:27:52.863Z,101367.04
2022-11-29T15:30:31.482Z,101366.09
2022-11-29T15:33:01.546Z,101368.80
2022-11-29T15:35:31.177Z,101367.62
2022-11-29T15:37:59.723Z,101367.83
2022-11-29T15:40:34.658Z,101374.35
2022-11-29T15:43:16.557Z,101370.80
2022-11-29T15:45:48.519Z,101375.05
2022-11-29T15:48:20.275Z,101367.38
2022-11-29T15:51:01.514Z,101374.95
2022-11-29T15:53:35.136Z,101362.84
2022-11-29T15:56:11.684Z,101373.89
2022-11-29T15:58:40.479Z,101372.07
2022-11-29T16:01:11.402Z,101373.58
2022-11-29T16:03:45.582Z,101375.92
2022-11-29T16:06:24.078Z,101380.85
2022-11-29T16:08:53.971Z,101377.33
2022-11-29T16:11:27.153Z,101378.94
2022-11-29T16:14:16.201Z,101379.00
2022-11-29T16:16:46.667Z,101381.02
2022-11-29T16:19:26.065Z,101384.54
2022-11-29T16:22:07.234Z,101384.30
2022-11-29T16:24:54.740Z,101390.68
2022-11-29T16:27:24.529Z,101391.95
2022-11-29T16:29:55.056Z,101393.38
2022-11-29T16:32:28.938Z,101391.02
2022-11-29T16:35:05.528Z,101397.27
2022-11-29T16:37:39.230Z,101388.35
2022-11-29T16:40:21.145Z,101401.41
2022-11-29T16:43:07.892Z,101399.23
2022-11-29T16:45:38.267Z,101403.30
2022-11-29T16:48:29.434Z,101403.27
2022-11-29T16:51:23.114Z,101403.53
2022-11-29T16:53:53.042Z,101405.14
2022-11-29T16:56:23.989Z,101411.55
2022-11-29T16:59:25.498Z,101412.48
2022-11-29T17:01:44.084Z,101413.10
2022-11-29T17:04:12.697Z,101418.98
2022-11-29T17:06:54.585Z,101418.58
2022-11-29T17:09:25.830Z,101417.42
2022-11-29T17:11:55.486Z,101419.05
2022-11-29T17:14:23.791Z,101422.15
2022-11-29T17:16:52.413Z,101424.98
2022-11-29T17:19:23.007Z,101423.91
2022-11-29T17:21:52.258Z,101427.79
2022-11-29T17:24:22.315Z,101423.55
2022-11-29T17:26:50.779Z,101427.83
2022-11-29T17:29:19.545Z,101430.20
2022-11-29T17:31:49.735Z,101430.02
2022-11-29T17:34:18.569Z,101435.90
2022-11-29T17:36:48.063Z,101441.70
2022-11-29T17:39:19.378Z,101439.64
2022-11-29T17:41:48.013Z,101439.58
2022-11-29T17:44:16.401Z,101444.05
2022-11-29T17:46:44.902Z,101444.20
2022-11-29T17:49:13.268Z,101441.81
2022-11-29T17:51:56.969Z,101440.42
2022-11-29T17:54:25.362Z,101443.41
2022-11-29T17:56:54.656Z,101431.55
2022-11-29T17:59:23.065Z,101442.06
2022-11-29T18:01:51.805Z,101443.31
2022-11-29T18:04:20.634Z,101444.61
2022-11-29T18:06:49.340Z,101447.11
2022-11-29T18:09:19.116Z,101442.21
2022-11-29T18:11:49.887Z,101446.63
2022-11-29T18:14:22.282Z,101449.64
2022-11-29T18:16:51.256Z,101452.73
2022-11-29T18:19:22.131Z,101454.44
2022-11-29T18:21:53.544Z,101453.02
2022-11-29T18:24:23.012Z,101456.81
2022-11-29T18:26:51.677Z,101460.63
2022-11-29T18:29:20.878Z,101463.77
2022-11-29T18:31:50.078Z,101464.08
2022-11-29T18:34:19.048Z,101461.84
2022-11-29T18:36:49.118Z,101460.48
2022-11-29T18:39:20.037Z,101462.60
2022-11-29T18:41:49.706Z,101461.36
2022-11-29T18:44:21.356Z,101465.36
2022-11-29T18:46:50.225Z,101465.52
2022-11-29T18:49:19.857Z,101470.75
2022-11-29T18:51:49.615Z,101470.92
2022-11-29T18:54:18.959Z,101473.70
2022-11-29T18:56:50.347Z,101468.95
2022-11-29T18:59:19.208Z,101472.73
2022-11-29T19:01:48.264Z,101470.94
2022-11-29T19:04:19.157Z,101470.03
2022-11-29T19:06:48.938Z,101472.13
2022-11-29T19:09:20.228Z,101470.95
2022-11-29T19:11:51.123Z,101469.84
2022-11-29T19:14:19.803Z,101470.30
2022-11-29T19:16:49.147Z,101467.09
2022-11-29T19:19:18.432Z,101467.70
2022-11-29T19:21:47.016Z,101470.10
2022-11-29T19:24:17.328Z,101475.11
2022-11-29T19:26:49.101Z,101474.65
2022-11-29T19:29:18.210Z,101478.31
2022-11-29T19:31:46.976Z,101478.34
2022-11-29T19:34:15.496Z,101478.52
2022-11-29T19:36:45.328Z,101483.07
2022-11-29T19:39:16.006Z,101484.33
2022-11-29T19:41:46.189Z,101474.85
2022-11-29T19:44:15.028Z,101485.48
2022-11-29T19:46:45.275Z,101486.48
2022-11-29T19:49:13.961Z,101489.23
2022-11-29T19:51:42.504Z,101486.34
2022-11-29T19:54:11.595Z,101492.16
2022-11-29T19:56:40.039Z,101490.23
2022-11-29T19:59:08.867Z,101497.77
2022-11-29T20:01:41.230Z,101498.41
2022-11-29T20:04:11.031Z,101501.19
2022-11-29T20:06:39.995Z,101499.01
2022-11-29T20:09:08.672Z,101497.55
2022-11-29T20:11:37.543Z,101500.76
2022-11-29T20:14:07.190Z,101501.12
2022-11-29T20:16:37.412Z,101485.36
2022-11-29T20:19:09.948Z,101490.09
2022-11-29T20:21:41.885Z,101502.17
2022-11-29T20:24:12.291Z,101505.93
2022-11-29T20:26:45.915Z,101506.81
2022-11-29T20:29:15.395Z,101504.87
2022-11-29T20:31:50.490Z,101507.91
2022-11-29T20:34:20.723Z,101488.25
2022-11-29T20:37:20.557Z,101498.77
2022-11-29T20:39:54.288Z,101498.23
2022-11-29T20:42:40.787Z,101501.08
2022-11-29T20:45:12.055Z,101503.05
2022-11-29T20:47:49.270Z,101509.05
2022-11-29T20:50:23.614Z,101512.86
2022-11-29T20:53:17.059Z,101514.70
2022-11-29T20:55:48.368Z,101503.48
2022-11-29T20:58:17.715Z,101511.39
2022-11-29T21:00:46.597Z,101509.89
2022-11-29T21:03:15.605Z,101512.42
2022-11-29T21:05:44.710Z,101508.66
2022-11-29T21:08:13.967Z,101501.58
2022-11-29T21:10:42.650Z,101513.38
2022-11-29T21:13:13.139Z,101517.84
2022-11-29T21:15:43.541Z,101519.23
2022-11-29T21:18:21.835Z,101521.42
2022-11-29T21:21:02.686Z,101522.73
2022-11-29T21:23:44.855Z,101527.36
2022-11-29T21:26:20.006Z,101522.19
2022-11-29T21:28:56.644Z,101524.48
2022-11-29T21:31:26.246Z,101526.89
2022-11-29T21:33:55.494Z,101527.07
2022-11-29T21:36:23.955Z,101526.49
2022-11-29T21:38:55.050Z,101527.73
2022-11-29T21:41:23.905Z,101530.40
2022-11-29T21:44:08.559Z,101530.06
2022-11-29T21:46:37.215Z,101529.96
2022-11-29T21:49:05.828Z,101528.39
2022-11-29T21:51:34.259Z,101528.88
2022-11-29T21:54:02.904Z,101530.94
2022-11-29T21:56:31.563Z,101527.14
2022-11-29T21:59:00.101Z,101528.78
2022-11-29T22:01:28.808Z,101529.95
2022-11-29T22:03:57.366Z,101530.45
2022-11-29T22:06:28.611Z,101528.91
2022-11-29T22:08:57.045Z,101534.45
2022-11-29T22:11:33.363Z,101534.52
2022-11-29T22:14:13.159Z,101524.56
2022-11-29T22:16:45.830Z,101534.59
2022-11-29T22:19:16.186Z,101537.03
2022-11-29T22:21:46.645Z,101536.37
2022-11-29T22:24:16.346Z,101529.21
2022-11-29T22:26:45.469Z,101531.13
2022-11-29T22:29:15.360Z,101534.77
2022-11-29T22:31:44.831Z,101529.77
2022-11-29T22:34:13.675Z,101530.46
2022-11-29T22:36:43.299Z,101526.21
2022-11-29T22:39:12.056Z,101527.84
2022-11-29T22:41:41.249Z,101530.30
2022-11-29T22:44:09.804Z,101532.04
2022-11-29T22:46:40.362Z,101529.02
2022-11-29T22:49:08.916Z,101529.52
2022-11-29T22:51:38.113Z,101526.23
2022-11-29T22:54:08.005Z,101520.10
2022-11-29T22:56:38.662Z,101534.36
2022-11-29T22:59:07.580Z,101529.98
2022-11-29T23:01:37.792Z,101530.51
2022-11-29T23:04:08.072Z,101534.32
2022-11-29T23:06:38.058Z,101532.62
2022-11-29T23:09:10.075Z,101532.14
2022-11-29T23:11:38.880Z,101532.02
2022-11-29T23:14:07.215Z,101529.85
2022-11-29T23:16:36.058Z,101534.60
2022-11-29T23:19:04.518Z,101531.36
2022-11-29T23:21:35.485Z,101530.58
2022-11-29T23:24:04.857Z,101532.25
2022-11-29T23:26:38.347Z,101530.84
2022-11-29T23:29:09.348Z,101535.84
2022-11-29T23:31:38.770Z,101533.80
2022-11-29T23:34:07.673Z,101534.17
2022-11-29T23:36:36.066Z,101536.77
2022-11-29T23:39:06.093Z,101534.17
2022-11-29T23:41:35.531Z,101538.11
2022-11-29T23:44:04.776Z,101545.56
2022-11-29T23:46:34.548Z,101540.37
2022-11-29T23:49:04.529Z,101540.79
2022-11-29T23:51:33.197Z,101538.29
2022-11-29T23:54:01.675Z,101530.36
2022-11-29T23:56:34.655Z,101530.56
2022-11-29T23:59:03.498Z,101532.58
